createdAt,value
2019-02-15T00:00:14.310Z,2.02
2019-02-15T00:02:42.702Z,1.95
2019-02-15T00:05:11.113Z,1.94
2019-02-15T00:07:39.517Z,1.90
2019-02-15T00:10:07.996Z,1.93
2019-02-15T00:12:36.411Z,1.93
2019-02-15T00:15:05.886Z,1.96
2019-02-15T00:17:35.905Z,2.02
2019-02-15T00:20:10.173Z,2.12
2019-02-15T00:22:38.590Z,2.25
2019-02-15T00:25:07.060Z,2.36
2019-02-15T00:27:35.481Z,2.43
2019-02-15T00:30:06.772Z,2.52
2019-02-15T00:32:35.198Z,2.66
2019-02-15T00:35:04.123Z,2.77
2019-02-15T00:37:32.514Z,2.82
2019-02-15T00:40:00.929Z,2.85
2019-02-15T00:42:29.326Z,2.90
2019-02-15T00:44:57.714Z,2.97
2019-02-15T00:47:27.821Z,3.03
2019-02-15T00:49:57.880Z,3.12
2019-02-15T00:52:36.813Z,3.14
2019-02-15T00:55:17.099Z,3.19
2019-02-15T00:57:50.146Z,3.17
2019-02-15T01:00:20.186Z,3.15
2019-02-15T01:02:50.303Z,3.19
2019-02-15T01:05:38.232Z,3.21
2019-02-15T01:08:11.563Z,3.18
2019-02-15T01:10:43.978Z,3.17
2019-02-15T01:13:13.837Z,3.16
2019-02-15T01:15:42.238Z,3.15
2019-02-15T01:18:10.710Z,3.15
2019-02-15T01:20:39.115Z,3.19
2019-02-15T01:23:07.507Z,3.20
2019-02-15T01:25:37.561Z,3.26
2019-02-15T01:28:07.606Z,3.25
2019-02-15T01:30:54.128Z,3.29
2019-02-15T01:33:33.220Z,3.30
2019-02-15T01:36:19.743Z,3.30
2019-02-15T01:38:55.738Z,3.33
2019-02-15T01:41:35.078Z,3.36
2019-02-15T01:44:05.136Z,3.40
2019-02-15T01:46:35.196Z,3.37
2019-02-15T01:49:03.607Z,3.36
2019-02-15T01:51:32.013Z,3.33
2019-02-15T01:54:00.405Z,3.30
2019-02-15T01:56:28.810Z,3.28
2019-02-15T01:58:57.207Z,3.26
2019-02-15T02:01:26.475Z,3.26
2019-02-15T02:03:54.955Z,3.26
2019-02-15T02:06:23.448Z,3.24
2019-02-15T02:08:51.837Z,3.21
2019-02-15T02:11:20.250Z,3.16
2019-02-15T02:13:49.907Z,3.14
2019-02-15T02:16:18.521Z,3.15
2019-02-15T02:18:46.918Z,3.13
2019-02-15T02:21:15.396Z,3.05
2019-02-15T02:23:43.801Z,3.01
2019-02-15T02:26:12.194Z,3.05
2019-02-15T02:28:40.622Z,3.06
2019-02-15T02:31:09.078Z,3.07
2019-02-15T02:33:37.478Z,3.08
2019-02-15T02:36:05.888Z,3.03
2019-02-15T02:38:34.280Z,3.03
2019-02-15T02:41:02.693Z,3.00
2019-02-15T02:43:31.175Z,2.99
2019-02-15T02:45:59.574Z,3.00
2019-02-15T02:48:27.992Z,2.99
2019-02-15T02:50:56.385Z,2.95
2019-02-15T02:53:24.813Z,2.90
2019-02-15T02:55:53.202Z,2.85
2019-02-15T02:58:21.615Z,2.80
2019-02-15T03:00:50.003Z,2.79
2019-02-15T03:03:18.412Z,2.77
2019-02-15T03:05:46.831Z,2.72
2019-02-15T03:08:15.206Z,2.69
2019-02-15T03:10:43.607Z,2.65
2019-02-15T03:13:12.021Z,2.57
2019-02-15T03:15:40.429Z,2.55
2019-02-15T03:18:08.832Z,2.56
2019-02-15T03:20:37.304Z,2.54
2019-02-15T03:23:05.702Z,2.52
2019-02-15T03:25:34.142Z,2.49
2019-02-15T03:28:02.539Z,2.45
2019-02-15T03:30:30.965Z,2.37
2019-02-15T03:32:59.428Z,2.36
2019-02-15T03:35:27.877Z,2.32
2019-02-15T03:37:57.914Z,2.29
2019-02-15T03:40:27.960Z,2.27
2019-02-15T03:42:56.385Z,2.24
2019-02-15T03:45:24.803Z,2.22
2019-02-15T03:47:53.201Z,2.19
2019-02-15T03:50:21.597Z,2.15
2019-02-15T03:52:50.084Z,2.16
2019-02-15T03:55:18.485Z,2.13
2019-02-15T03:57:46.913Z,2.08
2019-02-15T04:00:15.363Z,2.02
2019-02-15T04:02:43.830Z,1.97
2019-02-15T04:05:12.380Z,1.89
2019-02-15T04:07:40.775Z,1.86
2019-02-15T04:10:09.850Z,1.80
2019-02-15T04:12:38.249Z,1.78
2019-02-15T04:15:07.702Z,1.77
2019-02-15T04:17:36.168Z,1.73
2019-02-15T04:20:07.235Z,1.66
2019-02-15T04:22:35.664Z,1.62
2019-02-15T04:25:04.597Z,1.58
2019-02-15T04:27:33.155Z,1.55
2019-02-15T04:30:01.543Z,1.54
2019-02-15T04:32:29.973Z,1.46
2019-02-15T04:34:58.357Z,1.44
2019-02-15T04:37:26.759Z,1.41
2019-02-15T04:39:55.180Z,1.41
2019-02-15T04:42:23.568Z,1.40
2019-02-15T04:44:51.978Z,1.39
2019-02-15T04:47:20.383Z,1.35
2019-02-15T04:49:48.792Z,1.33
2019-02-15T04:52:17.204Z,1.34
2019-02-15T04:54:45.692Z,1.31
2019-02-15T04:57:14.084Z,1.30
2019-02-15T04:59:42.497Z,1.23
2019-02-15T05:02:10.910Z,1.19
2019-02-15T05:04:39.401Z,1.22
2019-02-15T05:07:07.804Z,1.18
2019-02-15T05:09:36.196Z,1.14
2019-02-15T05:12:04.609Z,1.17
2019-02-15T05:14:33.042Z,1.16
2019-02-15T05:17:01.430Z,1.14
2019-02-15T05:19:29.814Z,1.11
2019-02-15T05:21:58.225Z,1.15
2019-02-15T05:24:26.633Z,1.17
2019-02-15T05:26:55.055Z,1.15
2019-02-15T05:29:23.445Z,1.17
2019-02-15T05:31:51.846Z,1.15
2019-02-15T05:34:20.260Z,1.19
2019-02-15T05:36:48.726Z,1.24
2019-02-15T05:39:17.158Z,1.28
2019-02-15T05:41:45.566Z,1.26
2019-02-15T05:44:16.233Z,1.29
2019-02-15T05:46:44.086Z,1.34
2019-02-15T05:49:12.495Z,1.39
2019-02-15T05:51:40.929Z,1.41
2019-02-15T05:54:09.328Z,1.41
2019-02-15T05:56:37.760Z,1.43
2019-02-15T05:59:06.155Z,1.48
2019-02-15T06:01:35.138Z,1.50
2019-02-15T06:04:03.547Z,1.49
2019-02-15T06:06:31.942Z,1.47
2019-02-15T06:09:00.356Z,1.45
2019-02-15T06:11:28.774Z,1.46
2019-02-15T06:13:57.172Z,1.37
2019-02-15T06:16:25.575Z,1.37
2019-02-15T06:18:53.987Z,1.36
2019-02-15T06:21:22.398Z,1.38
2019-02-15T06:23:50.795Z,1.45
2019-02-15T06:26:19.200Z,1.43
2019-02-15T06:28:47.621Z,1.44
2019-02-15T06:31:16.022Z,1.41
2019-02-15T06:33:44.427Z,1.38
2019-02-15T06:36:12.827Z,1.32
2019-02-15T06:38:41.252Z,1.32
2019-02-15T06:41:12.197Z,1.32
2019-02-15T06:43:39.788Z,1.33
2019-02-15T06:46:08.184Z,1.35
2019-02-15T06:48:36.673Z,1.39
2019-02-15T06:51:05.154Z,1.36
2019-02-15T06:53:33.559Z,1.31
2019-02-15T06:56:01.986Z,1.24
2019-02-15T06:58:31.835Z,1.21
2019-02-15T07:01:01.918Z,1.21
2019-02-15T07:03:37.846Z,1.24
2019-02-15T07:06:06.265Z,1.22
2019-02-15T07:08:34.664Z,1.22
2019-02-15T07:11:03.155Z,1.16
2019-02-15T07:13:31.625Z,1.18
2019-02-15T07:16:00.049Z,1.22
2019-02-15T07:18:28.455Z,1.26
2019-02-15T07:20:56.850Z,1.29
2019-02-15T07:23:25.253Z,1.34
2019-02-15T07:25:53.666Z,1.37
2019-02-15T07:28:22.079Z,1.38
2019-02-15T07:30:50.499Z,1.39
2019-02-15T07:33:18.912Z,1.37
2019-02-15T07:35:47.309Z,1.39
2019-02-15T07:38:15.705Z,1.39
2019-02-15T07:40:44.117Z,-0.35
2019-02-15T07:43:12.577Z,1.50
2019-02-15T07:45:42.816Z,1.60
2019-02-15T07:48:11.180Z,1.70
2019-02-15T07:50:39.587Z,1.77
2019-02-15T07:53:09.148Z,1.86
2019-02-15T07:55:37.663Z,1.94
2019-02-15T07:58:06.067Z,2.02
2019-02-15T08:00:34.543Z,2.09
2019-02-15T08:03:02.955Z,2.17
2019-02-15T08:05:31.431Z,2.26
2019-02-15T08:07:59.846Z,2.36
2019-02-15T08:10:28.315Z,2.46
2019-02-15T08:12:56.719Z,2.69
2019-02-15T08:15:25.128Z,2.80
2019-02-15T08:17:53.538Z,2.94
2019-02-15T08:20:21.949Z,3.04
2019-02-15T08:22:50.374Z,3.16
2019-02-15T08:25:18.822Z,3.25
2019-02-15T08:27:47.243Z,3.39
2019-02-15T08:30:15.648Z,3.44
2019-02-15T08:32:44.063Z,3.62
2019-02-15T08:35:12.476Z,3.71
2019-02-15T08:37:40.891Z,3.81
2019-02-15T08:40:10.919Z,3.86
2019-02-15T08:42:39.416Z,3.85
2019-02-15T08:45:10.755Z,3.93
2019-02-15T08:47:39.851Z,3.96
2019-02-15T08:50:10.627Z,4.15
2019-02-15T08:52:39.052Z,4.44
2019-02-15T08:55:10.235Z,4.56
2019-02-15T08:57:38.646Z,4.72
2019-02-15T09:00:09.970Z,4.98
2019-02-15T09:02:38.374Z,5.01
2019-02-15T09:05:09.131Z,5.01
2019-02-15T09:07:37.522Z,5.03
2019-02-15T09:10:08.884Z,5.33
2019-02-15T09:12:37.343Z,5.44
2019-02-15T09:15:17.682Z,5.59
2019-02-15T09:17:46.083Z,5.71
2019-02-15T09:20:14.575Z,6.08
2019-02-15T09:22:42.994Z,6.07
2019-02-15T09:25:11.849Z,6.06
2019-02-15T09:27:41.957Z,6.04
2019-02-15T09:30:13.082Z,6.18
2019-02-15T09:32:41.583Z,6.39
2019-02-15T09:35:11.713Z,6.71
2019-02-15T09:37:40.100Z,6.81
2019-02-15T09:40:10.162Z,6.60
2019-02-15T09:42:38.651Z,6.56
2019-02-15T09:45:11.805Z,6.80
2019-02-15T09:47:40.222Z,6.77
2019-02-15T09:50:12.040Z,6.84
2019-02-15T09:52:40.171Z,7.14
2019-02-15T09:55:08.729Z,7.34
2019-02-15T09:57:37.147Z,7.30
2019-02-15T10:00:08.394Z,7.28
2019-02-15T10:02:37.665Z,7.41
2019-02-15T10:05:09.374Z,7.42
2019-02-15T10:07:37.771Z,7.77
2019-02-15T10:10:08.851Z,7.76
2019-02-15T10:12:37.324Z,7.80
2019-02-15T10:15:10.854Z,8.01
2019-02-15T10:17:39.277Z,8.18
2019-02-15T10:20:08.739Z,8.19
2019-02-15T10:22:37.139Z,8.06
2019-02-15T10:25:07.771Z,8.19
2019-02-15T10:27:36.254Z,8.21
2019-02-15T10:30:10.221Z,8.04
2019-02-15T10:32:40.121Z,7.91
2019-02-15T10:35:11.793Z,7.99
2019-02-15T10:37:40.211Z,8.10
2019-02-15T10:40:10.239Z,8.25
2019-02-15T10:42:38.643Z,8.46
2019-02-15T10:45:10.467Z,8.54
2019-02-15T10:47:38.858Z,8.55
2019-02-15T10:50:09.816Z,8.52
2019-02-15T10:52:38.233Z,8.85
2019-02-15T10:55:08.672Z,9.05
2019-02-15T10:57:37.344Z,9.11
2019-02-15T11:00:18.736Z,9.23
2019-02-15T11:02:47.799Z,9.38
2019-02-15T11:05:17.525Z,9.30
2019-02-15T11:07:45.911Z,9.19
2019-02-15T11:10:14.568Z,9.29
2019-02-15T11:12:43.071Z,9.44
2019-02-15T11:15:14.514Z,9.30
2019-02-15T11:17:42.928Z,9.29
2019-02-15T11:20:14.142Z,9.24
2019-02-15T11:22:42.555Z,9.15
2019-02-15T11:25:12.190Z,9.41
2019-02-15T11:27:40.828Z,9.37
2019-02-15T11:30:12.003Z,9.23
2019-02-15T11:32:40.470Z,9.27
2019-02-15T11:35:11.785Z,9.63
2019-02-15T11:37:40.306Z,9.87
2019-02-15T11:40:14.896Z,9.78
2019-02-15T11:42:43.372Z,9.69
2019-02-15T11:45:15.582Z,9.85
2019-02-15T11:47:44.044Z,9.77
2019-02-15T11:50:16.035Z,9.88
2019-02-15T11:52:44.578Z,9.92
2019-02-15T11:55:13.137Z,9.98
2019-02-15T11:57:41.552Z,9.93
2019-02-15T12:00:18.408Z,10.10
2019-02-15T12:02:46.529Z,10.10
2019-02-15T12:05:14.922Z,10.14
2019-02-15T12:07:43.414Z,10.19
2019-02-15T12:10:11.996Z,10.08
2019-02-15T12:12:40.438Z,10.21
2019-02-15T12:15:10.400Z,10.14
2019-02-15T12:17:38.826Z,9.90
2019-02-15T12:20:15.274Z,10.31
2019-02-15T12:22:43.679Z,10.18
2019-02-15T12:25:12.291Z,10.10
2019-02-15T12:27:40.676Z,10.03
2019-02-15T12:30:13.941Z,10.20
2019-02-15T12:32:42.335Z,10.38
2019-02-15T12:35:11.384Z,10.64
2019-02-15T12:37:39.887Z,10.64
2019-02-15T12:40:09.948Z,10.53
2019-02-15T12:42:38.363Z,10.40
2019-02-15T12:45:10.047Z,10.35
2019-02-15T12:47:38.438Z,10.61
2019-02-15T12:50:10.245Z,10.49
2019-02-15T12:52:38.661Z,10.78
2019-02-15T12:55:07.213Z,10.93
2019-02-15T12:57:35.619Z,11.02
2019-02-15T13:00:06.284Z,11.09
2019-02-15T13:02:34.691Z,11.23
2019-02-15T13:05:03.161Z,11.14
2019-02-15T13:07:31.771Z,11.11
2019-02-15T13:10:00.214Z,11.11
2019-02-15T13:12:28.571Z,11.07
2019-02-15T13:14:57.080Z,11.48
2019-02-15T13:17:25.623Z,11.47
2019-02-15T13:19:54.031Z,11.41
2019-02-15T13:22:22.462Z,11.51
2019-02-15T13:24:50.863Z,11.79
2019-02-15T13:27:19.281Z,12.38
2019-02-15T13:29:47.705Z,13.10
2019-02-15T13:32:17.367Z,14.03
2019-02-15T13:34:45.716Z,14.53
2019-02-15T13:37:14.138Z,14.91
2019-02-15T13:39:42.545Z,15.17
2019-02-15T13:42:11.056Z,15.34
2019-02-15T13:44:39.476Z,15.63
2019-02-15T13:47:07.944Z,15.93
2019-02-15T13:49:36.413Z,16.37
2019-02-15T13:52:04.853Z,16.30
2019-02-15T13:54:33.258Z,16.51
2019-02-15T13:57:01.692Z,16.37
2019-02-15T13:59:30.100Z,16.53
2019-02-15T14:01:58.530Z,16.58
2019-02-15T14:04:27.726Z,16.73
2019-02-15T14:06:56.870Z,16.73
2019-02-15T14:09:25.365Z,16.70
2019-02-15T14:11:53.761Z,16.74
2019-02-15T14:14:22.184Z,16.76
2019-02-15T14:16:50.593Z,16.82
2019-02-15T14:19:19.014Z,16.78
2019-02-15T14:21:47.433Z,16.51
2019-02-15T14:24:15.896Z,16.44
2019-02-15T14:26:44.321Z,16.43
2019-02-15T14:29:12.832Z,16.43
2019-02-15T14:31:41.787Z,16.33
2019-02-15T14:34:10.251Z,16.01
2019-02-15T14:36:38.650Z,15.86
2019-02-15T14:39:08.853Z,16.03
2019-02-15T14:41:37.254Z,15.76
2019-02-15T14:44:05.693Z,15.52
2019-02-15T14:46:34.097Z,15.25
2019-02-15T14:49:02.517Z,15.20
2019-02-15T14:51:30.967Z,15.21
2019-02-15T14:53:59.341Z,15.09
2019-02-15T14:56:27.764Z,14.86
2019-02-15T14:58:56.183Z,14.86
2019-02-15T15:01:24.591Z,14.74
2019-02-15T15:03:52.990Z,14.63
2019-02-15T15:06:21.407Z,14.51
2019-02-15T15:08:49.824Z,14.47
2019-02-15T15:11:18.243Z,14.28
2019-02-15T15:13:46.653Z,14.12
2019-02-15T15:16:15.065Z,13.89
2019-02-15T15:18:43.508Z,13.86
2019-02-15T15:21:11.905Z,13.79
2019-02-15T15:23:40.312Z,13.82
2019-02-15T15:26:11.828Z,13.82
2019-02-15T15:28:38.860Z,13.67
2019-02-15T15:31:07.281Z,13.73
2019-02-15T15:33:35.681Z,13.70
2019-02-15T15:36:04.179Z,13.54
2019-02-15T15:38:32.577Z,13.39
2019-02-15T15:41:00.981Z,13.32
2019-02-15T15:43:30.305Z,13.37
2019-02-15T15:45:58.694Z,13.44
2019-02-15T15:48:27.115Z,13.42
2019-02-15T15:50:55.513Z,13.29
2019-02-15T15:53:23.939Z,13.19
2019-02-15T15:55:52.327Z,13.17
2019-02-15T15:58:20.757Z,13.06
2019-02-15T16:00:49.159Z,12.95
2019-02-15T16:03:17.595Z,12.86
2019-02-15T16:05:46.078Z,12.84
2019-02-15T16:08:14.493Z,12.95
2019-02-15T16:10:42.897Z,12.79
2019-02-15T16:13:11.340Z,12.63
2019-02-15T16:15:39.844Z,12.54
2019-02-15T16:18:08.261Z,12.50
2019-02-15T16:20:36.674Z,12.53
2019-02-15T16:23:05.073Z,12.54
2019-02-15T16:25:33.499Z,12.49
2019-02-15T16:28:01.889Z,12.45
2019-02-15T16:30:30.293Z,12.30
2019-02-15T16:32:58.729Z,12.17
2019-02-15T16:35:27.147Z,12.05
2019-02-15T16:37:55.628Z,11.96
2019-02-15T16:40:24.025Z,11.92
2019-02-15T16:42:52.431Z,11.83
2019-02-15T16:45:20.928Z,11.61
2019-02-15T16:47:49.364Z,11.56
2019-02-15T16:50:17.731Z,11.46
2019-02-15T16:52:46.154Z,11.31
2019-02-15T16:55:14.565Z,11.21
2019-02-15T16:57:42.991Z,11.17
2019-02-15T17:00:13.138Z,11.14
2019-02-15T17:02:41.544Z,11.15
2019-02-15T17:05:10.177Z,11.04
2019-02-15T17:07:38.585Z,10.92
2019-02-15T17:10:09.262Z,10.87
2019-02-15T17:12:37.794Z,10.78
2019-02-15T17:15:11.733Z,10.78
2019-02-15T17:17:40.163Z,10.72
2019-02-15T17:20:10.044Z,10.59
2019-02-15T17:22:38.455Z,10.54
2019-02-15T17:25:09.478Z,10.50
2019-02-15T17:27:37.903Z,10.47
2019-02-15T17:30:09.387Z,10.51
2019-02-15T17:32:37.787Z,10.46
2019-02-15T17:35:08.627Z,10.50
2019-02-15T17:37:37.118Z,10.50
2019-02-15T17:40:13.220Z,10.41
2019-02-15T17:42:41.637Z,10.36
2019-02-15T17:45:11.574Z,10.34
2019-02-15T17:47:40.068Z,10.40
2019-02-15T17:50:12.165Z,10.39
2019-02-15T17:52:40.727Z,10.27
2019-02-15T17:55:10.383Z,10.21
2019-02-15T17:57:39.063Z,10.23
2019-02-15T18:00:10.892Z,10.26
2019-02-15T18:02:39.308Z,10.24
2019-02-15T18:05:11.110Z,10.13
2019-02-15T18:07:39.519Z,10.02
2019-02-15T18:10:09.074Z,9.95
2019-02-15T18:12:37.458Z,9.86
2019-02-15T18:15:06.662Z,9.78
2019-02-15T18:17:35.536Z,9.74
2019-02-15T18:20:05.396Z,9.83
2019-02-15T18:22:33.815Z,9.84
2019-02-15T18:25:02.378Z,9.84
2019-02-15T18:27:30.799Z,9.85
2019-02-15T18:29:59.249Z,9.75
2019-02-15T18:32:27.645Z,9.79
2019-02-15T18:34:56.053Z,9.76
2019-02-15T18:37:24.477Z,9.83
2019-02-15T18:39:52.898Z,9.82
2019-02-15T18:42:21.286Z,9.88
2019-02-15T18:44:49.765Z,9.91
2019-02-15T18:47:18.193Z,9.84
2019-02-15T18:49:46.597Z,9.73
2019-02-15T18:52:15.056Z,9.65
2019-02-15T18:54:43.465Z,9.58
2019-02-15T18:57:11.879Z,9.53
2019-02-15T18:59:40.287Z,9.51
2019-02-15T19:02:08.702Z,9.52
2019-02-15T19:04:37.126Z,9.50
2019-02-15T19:07:05.592Z,9.60
2019-02-15T19:09:34.023Z,9.53
2019-02-15T19:12:02.492Z,9.49
2019-02-15T19:14:31.040Z,9.52
2019-02-15T19:16:59.534Z,9.57
2019-02-15T19:19:29.344Z,9.57
2019-02-15T19:21:57.898Z,9.53
2019-02-15T19:24:26.387Z,9.51
2019-02-15T19:26:54.806Z,9.52
2019-02-15T19:29:23.205Z,9.46
2019-02-15T19:31:51.623Z,9.41
2019-02-15T19:34:20.057Z,9.40
2019-02-15T19:36:48.491Z,9.40
2019-02-15T19:39:16.980Z,9.33
2019-02-15T19:41:45.462Z,9.27
2019-02-15T19:44:13.891Z,9.29
2019-02-15T19:46:42.293Z,9.26
2019-02-15T19:49:10.706Z,9.15
2019-02-15T19:51:39.180Z,9.12
2019-02-15T19:54:07.608Z,9.22
2019-02-15T19:56:36.038Z,9.22
2019-02-15T19:59:04.432Z,9.13
2019-02-15T20:01:32.993Z,9.08
2019-02-15T20:04:01.420Z,9.06
2019-02-15T20:06:30.104Z,9.03
2019-02-15T20:08:58.578Z,9.01
2019-02-15T20:11:27.071Z,9.02
2019-02-15T20:13:55.471Z,8.99
2019-02-15T20:16:23.903Z,8.99
2019-02-15T20:18:52.305Z,8.97
2019-02-15T20:21:20.797Z,8.96
2019-02-15T20:23:49.232Z,8.93
2019-02-15T20:26:17.648Z,8.94
2019-02-15T20:28:46.051Z,8.88
2019-02-15T20:31:14.477Z,8.84
2019-02-15T20:33:42.863Z,8.81
2019-02-15T20:36:11.279Z,8.82
2019-02-15T20:38:39.674Z,8.76
2019-02-15T20:41:08.103Z,8.74
2019-02-15T20:43:36.480Z,8.86
2019-02-15T20:46:05.031Z,8.87
2019-02-15T20:48:33.524Z,8.84
2019-02-15T20:51:01.983Z,8.86
2019-02-15T20:53:30.402Z,8.88
2019-02-15T20:55:58.797Z,8.85
2019-02-15T20:58:27.247Z,8.84
2019-02-15T21:00:56.325Z,8.80
2019-02-15T21:03:24.898Z,8.81
2019-02-15T21:05:53.436Z,8.82
2019-02-15T21:08:21.896Z,8.67
2019-02-15T21:10:55.210Z,8.65
2019-02-15T21:13:20.896Z,8.68
2019-02-15T21:15:49.366Z,8.68
2019-02-15T21:18:17.824Z,8.59
2019-02-15T21:20:46.242Z,8.69
2019-02-15T21:23:14.668Z,8.62
2019-02-15T21:25:43.079Z,8.60
2019-02-15T21:28:11.534Z,8.59
2019-02-15T21:30:39.933Z,8.48
2019-02-15T21:33:08.350Z,8.37
2019-02-15T21:35:36.791Z,8.34
2019-02-15T21:38:05.196Z,8.32
2019-02-15T21:40:33.605Z,8.31
2019-02-15T21:43:02.020Z,8.28
2019-02-15T21:45:30.405Z,8.26
2019-02-15T21:47:58.818Z,8.32
2019-02-15T21:50:27.374Z,8.31
2019-02-15T21:52:55.763Z,8.28
2019-02-15T21:55:24.170Z,8.23
2019-02-15T21:58:00.820Z,8.30
2019-02-15T22:00:25.040Z,8.29
2019-02-15T22:02:53.550Z,8.24
2019-02-15T22:05:21.899Z,8.24
2019-02-15T22:07:50.388Z,8.18
2019-02-15T22:10:18.794Z,8.17
2019-02-15T22:12:47.189Z,8.18
2019-02-15T22:15:16.847Z,8.12
2019-02-15T22:17:45.349Z,8.07
2019-02-15T22:20:15.046Z,8.13
2019-02-15T22:22:43.530Z,8.10
2019-02-15T22:25:12.012Z,8.07
2019-02-15T22:27:40.493Z,8.00
2019-02-15T22:30:14.140Z,8.06
2019-02-15T22:32:42.860Z,8.02
2019-02-15T22:35:11.389Z,8.01
2019-02-15T22:37:39.860Z,8.01
2019-02-15T22:40:25.710Z,7.95
2019-02-15T22:42:54.195Z,7.96
2019-02-15T22:45:22.611Z,7.97
2019-02-15T22:47:51.051Z,7.90
2019-02-15T22:50:19.472Z,7.89
2019-02-15T22:52:48.064Z,7.88
2019-02-15T22:55:16.462Z,7.84
2019-02-15T22:57:44.934Z,7.75
2019-02-15T23:00:25.365Z,7.74
2019-02-15T23:02:53.829Z,7.73
2019-02-15T23:05:22.385Z,7.71
2019-02-15T23:07:50.782Z,7.69
2019-02-15T23:10:19.268Z,7.64
2019-02-15T23:12:47.682Z,7.61
2019-02-15T23:15:16.074Z,7.55
2019-02-15T23:17:44.555Z,7.50
2019-02-15T23:20:13.041Z,7.47
2019-02-15T23:22:41.459Z,7.45
2019-02-15T23:25:09.940Z,7.42
2019-02-15T23:27:38.371Z,7.42
2019-02-15T23:30:08.002Z,7.43
2019-02-15T23:32:36.413Z,7.40
2019-02-15T23:35:05.095Z,7.39
2019-02-15T23:37:33.490Z,7.37
2019-02-15T23:40:01.907Z,7.41
2019-02-15T23:42:30.305Z,7.40
2019-02-15T23:44:58.728Z,7.37
2019-02-15T23:47:27.127Z,7.34
2019-02-15T23:49:55.559Z,7.35
2019-02-15T23:52:23.947Z,7.36
2019-02-15T23:54:52.352Z,7.30
2019-02-15T23:57:20.758Z,7.28
2019-02-15T23:59:49.150Z,7.22
